Aérodrome :
LOGIN :

S'inscrire | Disclaimer

   EN    FR    IT 

 










Légende :    VFR   VFR Marginal   IFR   IFR Intensif   IFR Très Intensif
Visi : 
Plafond : 
>= 8 km
>= 3000ft
5 à 8 km
1000 à 3000 ft
1500m à 5 km
500 à 1000 ft
800 à 1500m
200 à 500 ft
< 800m
< 200 ft
Symboles :   Orages  Brouillard  Fortes neiges  Fortes précipitations  Vent > 20 kt
SIGMETs :   Divers  Orages  Givrage  Turbulence  Onde Orograph.  Cendres Volcan.






- Altitude de l'aérodrome : 49 ft
- Code IATA : SEN


EGMC - Southend

DERNIER METAR :
  • 232120Z 24015KT 9999 VCSH FEW017 13/10 Q0997

METARs EXPIRÉS :
  • 232050Z 25016KT 9999 -SHRA SCT015 BKN031 14/11 Q0996
  • 232020Z 24010KT 9999 FEW010 SCT015 14/13 Q0996
  • 231950Z 24010KT 9999 SCT020 15/13 Q0996
  • 231920Z 24009KT 9999 FEW022 15/13 Q0996
  • 231850Z 23014KT 9999 FEW024 16/13 Q0996

TAF TAF EGMC
Valide du 23 à 21h jusqu'au 24 à 06h UTC


232002Z 2321/2406 24012KT 9999 SCT025
TEMPO 2321/2323 6000 SHRA
BECMG 2403/2406 18008KT
TEMPO 2404/2406 6000 SHRA
PROB40
TEMPO 2404/2406 4000 +SHRA BKN014



MET'MAP, la Météo Aéronautique d'un coup d'oeil ! - Copyright ORBIFLY Décembre 2007 - Disclaimer

ORBIFLY MET'MAP TEAM :

Programmation & Développement : Alexandra Zaïnal
Sur une idée originale de : Baudouin d'Aumeries
Assistance à la programmation : Marc-Olivier Méhu
Soutien technique & logistique : Manuel Goepfert

Contact : metmap@orbifly.com




SOURCES & CREDITS :

   NOAA